createdAt,value
2022-10-20T00:00:08.468Z,56.59
2022-10-20T00:02:10.615Z,56.67
2022-10-20T00:04:12.234Z,56.59
2022-10-20T00:06:23.145Z,56.42
2022-10-20T00:08:24.839Z,56.64
2022-10-20T00:10:26.320Z,56.65
2022-10-20T00:12:28.124Z,56.93
2022-10-20T00:14:29.738Z,56.69
2022-10-20T00:16:34.690Z,56.68
2022-10-20T00:18:36.742Z,56.54
2022-10-20T00:20:39.897Z,56.69
2022-10-20T00:22:41.695Z,56.50
2022-10-20T00:24:43.612Z,56.56
2022-10-20T00:26:45.258Z,56.53
2022-10-20T00:28:47.249Z,56.48
2022-10-20T00:30:55.055Z,56.52
2022-10-20T00:32:56.927Z,56.37
2022-10-20T00:34:58.580Z,56.33
2022-10-20T00:37:00.334Z,56.76
2022-10-20T00:39:04.580Z,56.10
2022-10-20T00:41:06.710Z,56.04
2022-10-20T00:43:13.554Z,56.02
2022-10-20T00:45:18.779Z,56.22
2022-10-20T00:47:30.569Z,56.20
2022-10-20T00:49:32.235Z,56.56
2022-10-20T00:51:34.571Z,56.25
2022-10-20T00:53:36.158Z,56.33
2022-10-20T00:55:41.862Z,56.27
2022-10-20T00:57:47.658Z,56.34
2022-10-20T00:59:49.404Z,56.44
2022-10-20T01:01:51.317Z,56.33
2022-10-20T01:03:53.252Z,56.69
2022-10-20T01:05:54.910Z,56.73
2022-10-20T01:07:56.606Z,56.84
2022-10-20T01:09:58.381Z,56.73
2022-10-20T01:12:14.178Z,56.58
2022-10-20T01:14:25.319Z,56.83
2022-10-20T01:16:54.440Z,56.61
2022-10-20T01:19:13.119Z,56.64
2022-10-20T01:21:14.845Z,56.69
2022-10-20T01:23:39.112Z,57.17
2022-10-20T01:26:18.051Z,56.87
2022-10-20T01:28:25.354Z,56.96
2022-10-20T01:30:26.985Z,56.83
2022-10-20T01:32:46.508Z,56.79
2022-10-20T01:34:58.934Z,56.79
2022-10-20T01:37:28.362Z,57.00
2022-10-20T01:39:48.781Z,56.89
2022-10-20T01:41:56.543Z,56.82
2022-10-20T01:44:01.291Z,56.64
2022-10-20T01:46:04.448Z,56.63
2022-10-20T01:48:07.934Z,56.63
2022-10-20T01:50:11.492Z,56.51
2022-10-20T01:52:13.803Z,56.69
2022-10-20T01:54:27.190Z,56.54
2022-10-20T01:56:53.651Z,56.83
2022-10-20T01:59:25.201Z,57.33
2022-10-20T02:01:57.943Z,57.23
2022-10-20T02:04:04.652Z,57.20
2022-10-20T02:06:34.316Z,57.41
2022-10-20T02:08:57.171Z,57.46
2022-10-20T02:11:02.137Z,57.41
2022-10-20T02:13:07.190Z,57.31
2022-10-20T02:15:12.219Z,57.34
2022-10-20T02:17:17.285Z,57.51
2022-10-20T02:19:22.856Z,57.50
2022-10-20T02:21:25.347Z,57.64
2022-10-20T02:23:35.181Z,57.54
2022-10-20T02:25:40.793Z,57.44
2022-10-20T02:27:47.700Z,57.44
2022-10-20T02:30:03.141Z,57.25
2022-10-20T02:32:05.962Z,57.34
2022-10-20T02:34:08.571Z,57.18
2022-10-20T02:36:16.689Z,57.25
2022-10-20T02:38:18.395Z,57.21
2022-10-20T02:40:22.060Z,57.27
2022-10-20T02:42:23.674Z,57.21
2022-10-20T02:44:25.187Z,57.51
2022-10-20T02:46:26.990Z,57.49
2022-10-20T02:48:28.638Z,57.54
2022-10-20T02:50:30.278Z,57.21
2022-10-20T02:52:32.007Z,57.29
2022-10-20T02:54:33.888Z,57.31
2022-10-20T02:56:35.463Z,57.39
2022-10-20T02:58:37.248Z,57.31
2022-10-20T03:00:38.827Z,57.58
2022-10-20T03:02:40.475Z,57.61
2022-10-20T03:04:42.067Z,57.68
2022-10-20T03:06:44.149Z,57.54
2022-10-20T03:08:45.799Z,58.07
2022-10-20T03:10:47.240Z,57.60
2022-10-20T03:12:48.963Z,57.70
2022-10-20T03:14:50.502Z,57.90
2022-10-20T03:16:52.137Z,58.07
2022-10-20T03:18:53.848Z,58.00
2022-10-20T03:20:55.552Z,57.88
2022-10-20T03:22:57.303Z,57.88
2022-10-20T03:24:58.844Z,57.87
2022-10-20T03:27:00.383Z,57.83
2022-10-20T03:29:01.874Z,57.89
2022-10-20T03:31:05.014Z,57.97
2022-10-20T03:33:08.817Z,57.86
2022-10-20T03:35:10.641Z,58.03
2022-10-20T03:37:12.380Z,57.81
2022-10-20T03:39:13.960Z,57.62
2022-10-20T03:41:15.497Z,57.95
2022-10-20T03:43:17.219Z,57.38
2022-10-20T03:45:18.835Z,57.82
2022-10-20T03:47:20.554Z,57.71
2022-10-20T03:49:22.226Z,57.77
2022-10-20T03:51:23.965Z,57.65
2022-10-20T03:53:25.771Z,57.61
2022-10-20T03:55:27.296Z,57.74
2022-10-20T03:57:28.849Z,57.78
2022-10-20T03:59:30.624Z,57.60
2022-10-20T04:01:33.582Z,57.70
2022-10-20T04:03:35.241Z,57.82
2022-10-20T04:05:39.556Z,57.67
2022-10-20T04:07:41.320Z,57.74
2022-10-20T04:09:42.808Z,57.90
2022-10-20T04:11:44.775Z,57.70
2022-10-20T04:13:46.399Z,57.54
2022-10-20T04:15:48.083Z,57.67
2022-10-20T04:17:49.673Z,57.73
2022-10-20T04:19:51.296Z,57.61
2022-10-20T04:21:53.044Z,57.30
2022-10-20T04:23:56.254Z,57.72
2022-10-20T04:25:57.835Z,57.66
2022-10-20T04:28:01.176Z,57.79
2022-10-20T04:30:03.017Z,57.69
2022-10-20T04:32:04.904Z,57.45
2022-10-20T04:34:06.562Z,57.27
2022-10-20T04:36:12.050Z,57.14
2022-10-20T04:38:14.266Z,57.37
2022-10-20T04:40:16.023Z,57.16
2022-10-20T04:42:18.678Z,57.29
2022-10-20T04:44:20.210Z,57.30
2022-10-20T04:46:22.028Z,57.48
2022-10-20T04:48:23.495Z,57.32
2022-10-20T04:50:25.077Z,57.70
2022-10-20T04:52:41.225Z,57.83
2022-10-20T04:54:42.794Z,57.56
2022-10-20T04:56:47.609Z,57.99
2022-10-20T04:58:50.819Z,58.20
2022-10-20T05:00:52.482Z,57.95
2022-10-20T05:02:55.255Z,58.25
2022-10-20T05:04:56.674Z,57.97
2022-10-20T05:06:58.398Z,57.92
2022-10-20T05:09:02.610Z,57.95
2022-10-20T05:11:04.580Z,58.09
2022-10-20T05:13:06.367Z,58.03
2022-10-20T05:15:08.129Z,58.07
2022-10-20T05:17:10.162Z,57.85
2022-10-20T05:19:11.899Z,58.14
2022-10-20T05:21:16.743Z,58.20
2022-10-20T05:23:18.565Z,58.09
2022-10-20T05:25:36.815Z,57.93
2022-10-20T05:27:41.981Z,58.07
2022-10-20T05:29:43.727Z,58.30
2022-10-20T05:31:48.042Z,58.16
2022-10-20T05:33:52.245Z,58.11
2022-10-20T05:35:53.994Z,58.04
2022-10-20T05:37:56.126Z,58.08
2022-10-20T05:39:57.701Z,57.91
2022-10-20T05:41:59.339Z,58.05
2022-10-20T05:44:04.407Z,58.05
2022-10-20T05:46:06.370Z,58.31
2022-10-20T05:48:07.970Z,58.17
2022-10-20T05:50:10.236Z,58.46
2022-10-20T05:52:11.994Z,58.30
2022-10-20T05:54:14.260Z,58.49
2022-10-20T05:56:18.820Z,58.23
2022-10-20T05:58:22.932Z,58.29
2022-10-20T06:00:30.806Z,58.36
2022-10-20T06:02:32.737Z,58.21
2022-10-20T06:04:34.286Z,57.95
2022-10-20T06:06:36.344Z,58.03
2022-10-20T06:08:38.483Z,58.21
2022-10-20T06:10:40.063Z,58.00
2022-10-20T06:12:42.798Z,58.50
2022-10-20T06:14:44.514Z,58.28
2022-10-20T06:16:46.310Z,58.40
2022-10-20T06:18:48.100Z,58.36
2022-10-20T06:20:59.316Z,58.59
2022-10-20T06:23:00.885Z,58.58
2022-10-20T06:25:04.326Z,58.41
2022-10-20T06:27:06.022Z,58.43
2022-10-20T06:29:11.610Z,58.44
2022-10-20T06:31:31.552Z,58.52
2022-10-20T06:33:33.203Z,58.86
2022-10-20T06:35:34.831Z,58.51
2022-10-20T06:37:36.384Z,58.73
2022-10-20T06:39:38.138Z,58.59
2022-10-20T06:41:39.982Z,58.67
2022-10-20T06:43:49.226Z,58.55
2022-10-20T06:45:58.580Z,58.80
2022-10-20T06:48:00.334Z,58.41
2022-10-20T06:50:01.948Z,58.68
2022-10-20T06:52:04.090Z,58.61
2022-10-20T06:54:06.035Z,58.65
2022-10-20T06:56:11.860Z,58.85
2022-10-20T06:58:13.453Z,58.77
2022-10-20T07:00:15.348Z,58.65
2022-10-20T07:02:17.333Z,58.74
2022-10-20T07:04:18.912Z,58.63
2022-10-20T07:06:29.474Z,58.65
2022-10-20T07:08:34.473Z,58.75
2022-10-20T07:10:36.192Z,58.69
2022-10-20T07:12:38.351Z,58.51
2022-10-20T07:14:40.529Z,58.85
2022-10-20T07:16:42.301Z,58.65
2022-10-20T07:20:51.268Z,58.78
2022-10-20T07:22:52.976Z,58.81
2022-10-20T07:24:54.709Z,58.92
2022-10-20T07:26:56.958Z,59.06
2022-10-20T07:29:02.976Z,59.07
2022-10-20T07:31:07.402Z,59.01
2022-10-20T07:33:09.788Z,59.06
2022-10-20T07:35:11.426Z,58.91
2022-10-20T07:37:13.551Z,59.13
2022-10-20T07:39:15.243Z,58.97
2022-10-20T07:41:17.216Z,58.81
2022-10-20T07:43:19.344Z,59.14
2022-10-20T07:45:21.335Z,59.14
2022-10-20T07:47:23.054Z,59.08
2022-10-20T07:49:43.536Z,63.83
2022-10-20T07:51:46.516Z,59.19
2022-10-20T07:53:56.898Z,58.89
2022-10-20T07:56:01.645Z,58.59
2022-10-20T07:58:03.325Z,58.84
2022-10-20T08:00:05.363Z,58.68
2022-10-20T08:02:15.879Z,58.63
2022-10-20T08:04:17.572Z,58.84
2022-10-20T08:06:19.663Z,58.68
2022-10-20T08:08:21.477Z,58.73
2022-10-20T08:10:23.073Z,58.51
2022-10-20T08:12:24.904Z,58.54
2022-10-20T08:14:27.298Z,58.49
2022-10-20T08:16:33.831Z,58.40
2022-10-20T08:18:40.179Z,58.59
2022-10-20T08:20:41.908Z,58.29
2022-10-20T08:22:43.491Z,58.29
2022-10-20T08:24:45.668Z,58.28
2022-10-20T08:26:47.499Z,58.40
2022-10-20T08:28:50.808Z,58.44
2022-10-20T08:30:52.346Z,58.38
2022-10-20T08:32:54.457Z,57.98
2022-10-20T08:34:55.924Z,58.33
2022-10-20T08:36:57.969Z,58.20
2022-10-20T08:39:03.493Z,58.28
2022-10-20T08:41:16.376Z,58.54
2022-10-20T08:43:19.597Z,58.25
2022-10-20T08:45:24.212Z,58.21
2022-10-20T08:47:37.106Z,58.18
2022-10-20T08:49:39.001Z,58.28
2022-10-20T08:51:42.645Z,58.02
2022-10-20T08:53:45.455Z,58.32
2022-10-20T08:55:47.394Z,58.42
2022-10-20T08:57:49.560Z,58.20
2022-10-20T08:59:54.000Z,58.21
2022-10-20T09:01:57.821Z,58.19
2022-10-20T09:04:23.514Z,58.10
2022-10-20T09:06:25.573Z,57.99
2022-10-20T09:08:31.044Z,58.21
2022-10-20T09:10:44.941Z,58.03
2022-10-20T09:12:48.901Z,57.91
2022-10-20T09:14:50.658Z,57.85
2022-10-20T09:17:00.224Z,57.88
2022-10-20T09:19:02.620Z,58.07
2022-10-20T09:21:13.364Z,58.37
2022-10-20T09:23:39.518Z,58.38
2022-10-20T09:25:42.188Z,58.77
2022-10-20T09:27:45.282Z,59.17
2022-10-20T09:29:46.955Z,59.50
2022-10-20T09:31:54.436Z,59.78
2022-10-20T09:33:55.966Z,59.45
2022-10-20T09:36:04.304Z,59.67
2022-10-20T09:38:29.906Z,61.16
2022-10-20T09:40:32.354Z,60.25
2022-10-20T09:42:40.133Z,60.15
2022-10-20T09:44:47.626Z,60.00
2022-10-20T09:46:53.249Z,59.44
2022-10-20T09:48:55.404Z,58.88
2022-10-20T09:50:58.768Z,58.57
2022-10-20T09:53:04.451Z,57.69
2022-10-20T09:55:20.142Z,57.28
2022-10-20T09:57:23.064Z,57.04
2022-10-20T09:59:34.456Z,56.78
2022-10-20T10:01:54.592Z,56.11
2022-10-20T10:03:59.941Z,56.41
2022-10-20T10:06:39.891Z,55.28
2022-10-20T10:08:44.962Z,55.76
2022-10-20T10:11:14.208Z,55.47
2022-10-20T10:13:26.560Z,55.33
2022-10-20T10:15:34.531Z,55.14
2022-10-20T10:17:39.271Z,54.74
2022-10-20T10:19:41.174Z,54.66
2022-10-20T10:21:51.945Z,53.88
2022-10-20T10:24:02.194Z,53.17
2022-10-20T10:26:24.120Z,53.05
2022-10-20T10:28:31.131Z,52.66
2022-10-20T10:30:38.374Z,52.20
2022-10-20T10:32:44.250Z,52.23
2022-10-20T10:35:11.994Z,51.46
2022-10-20T10:37:17.306Z,51.80
2022-10-20T10:39:19.113Z,51.31
2022-10-20T10:41:41.852Z,51.05
2022-10-20T10:44:00.386Z,51.17
2022-10-20T10:46:36.989Z,49.63
2022-10-20T10:48:54.116Z,50.58
2022-10-20T10:51:02.502Z,50.31
2022-10-20T10:53:16.375Z,50.12
2022-10-20T10:55:47.812Z,49.73
2022-10-20T10:58:08.095Z,49.02
2022-10-20T11:00:27.899Z,47.91
2022-10-20T11:02:39.359Z,47.96
2022-10-20T11:04:58.425Z,47.61
2022-10-20T11:07:25.136Z,46.88
2022-10-20T11:09:48.404Z,46.59
2022-10-20T11:12:29.595Z,46.18
2022-10-20T11:14:47.181Z,46.34
2022-10-20T11:17:02.250Z,46.24
2022-10-20T11:19:09.807Z,46.66
2022-10-20T11:21:22.841Z,45.02
2022-10-20T11:23:46.794Z,45.04
2022-10-20T11:25:57.302Z,45.82
2022-10-20T11:28:00.198Z,45.80
2022-10-20T11:30:08.996Z,45.72
2022-10-20T11:32:41.326Z,45.21
2022-10-20T11:35:13.735Z,45.66
2022-10-20T11:37:36.988Z,45.12
2022-10-20T11:39:55.836Z,46.09
2022-10-20T11:42:05.406Z,45.79
2022-10-20T11:44:14.351Z,46.32
2022-10-20T11:46:20.831Z,46.18
2022-10-20T11:48:45.588Z,45.88
2022-10-20T11:53:36.694Z,45.69
2022-10-20T11:55:59.394Z,45.81
2022-10-20T11:58:23.985Z,45.62
2022-10-20T12:00:46.259Z,45.58
2022-10-20T12:02:54.301Z,45.99
2022-10-20T12:05:18.418Z,45.65
2022-10-20T12:07:32.109Z,45.70
2022-10-20T12:09:54.344Z,45.33
2022-10-20T12:12:03.623Z,45.61
2022-10-20T12:14:14.126Z,45.53
2022-10-20T12:16:54.728Z,45.30
2022-10-20T12:19:17.693Z,45.71
2022-10-20T12:21:54.094Z,45.11
2022-10-20T12:24:02.887Z,45.71
2022-10-20T12:26:04.567Z,45.81
2022-10-20T12:28:22.737Z,45.34
2022-10-20T12:30:39.790Z,45.28
2022-10-20T12:32:55.800Z,45.71
2022-10-20T12:35:03.629Z,45.39
2022-10-20T12:37:35.217Z,45.45
2022-10-20T12:39:37.281Z,45.63
2022-10-20T12:41:54.068Z,45.26
2022-10-20T12:44:01.716Z,45.06
2022-10-20T12:46:08.123Z,45.50
2022-10-20T12:48:22.914Z,45.21
2022-10-20T12:50:40.505Z,45.25
2022-10-20T12:52:42.322Z,45.46
2022-10-20T12:54:48.490Z,45.46
2022-10-20T12:56:52.445Z,45.50
2022-10-20T12:59:31.042Z,45.23
2022-10-20T13:02:10.944Z,45.40
2022-10-20T13:04:51.146Z,45.47
2022-10-20T13:06:52.962Z,45.78
2022-10-20T13:09:03.886Z,45.49
2022-10-20T13:11:35.857Z,45.63
2022-10-20T13:13:45.321Z,45.75
2022-10-20T13:15:53.464Z,45.98
2022-10-20T13:18:03.068Z,45.97
2022-10-20T13:20:36.238Z,45.82
2022-10-20T13:22:46.663Z,45.89
2022-10-20T13:24:48.661Z,46.07
2022-10-20T13:26:56.176Z,45.95
2022-10-20T13:29:01.282Z,46.36
2022-10-20T13:31:14.731Z,46.06
2022-10-20T13:33:45.024Z,45.80
2022-10-20T13:36:05.378Z,46.01
2022-10-20T13:38:14.928Z,46.05
2022-10-20T13:41:13.006Z,45.97
2022-10-20T13:43:38.546Z,46.02
2022-10-20T13:45:42.942Z,46.25
2022-10-20T13:48:13.664Z,45.99
2022-10-20T13:50:26.609Z,46.08
2022-10-20T13:52:32.575Z,46.38
2022-10-20T13:54:37.847Z,46.25
2022-10-20T13:56:47.728Z,46.46
2022-10-20T13:59:06.589Z,46.55
2022-10-20T14:01:19.292Z,46.46
2022-10-20T14:03:20.894Z,46.70
2022-10-20T14:05:23.647Z,46.48
2022-10-20T14:07:25.189Z,46.65
2022-10-20T14:09:29.816Z,46.56
2022-10-20T14:11:32.069Z,46.59
2022-10-20T14:13:35.862Z,46.69
2022-10-20T14:15:37.911Z,46.70
2022-10-20T14:17:40.799Z,46.70
2022-10-20T14:19:46.028Z,46.67
2022-10-20T14:21:50.904Z,46.79
2022-10-20T14:23:52.538Z,46.95
2022-10-20T14:25:54.969Z,46.98
2022-10-20T14:27:57.434Z,46.79
2022-10-20T14:30:02.993Z,46.64
2022-10-20T14:32:06.485Z,46.74
2022-10-20T14:34:20.048Z,46.58
2022-10-20T14:38:37.690Z,46.69
2022-10-20T14:40:39.438Z,46.97
2022-10-20T14:42:44.450Z,46.76
2022-10-20T14:44:46.084Z,46.97
2022-10-20T14:46:48.077Z,47.08
2022-10-20T14:48:50.735Z,46.96
2022-10-20T14:50:53.938Z,46.89
2022-10-20T14:52:55.676Z,46.94
2022-10-20T14:54:57.759Z,47.23
2022-10-20T14:57:04.208Z,47.25
2022-10-20T14:59:14.713Z,46.98
2022-10-20T15:01:19.823Z,47.36
2022-10-20T15:03:21.384Z,47.47
2022-10-20T15:05:26.010Z,47.25
2022-10-20T15:07:33.181Z,47.31
2022-10-20T15:09:41.481Z,47.21
2022-10-20T15:11:46.853Z,47.45
2022-10-20T15:13:53.639Z,47.52
2022-10-20T15:15:57.635Z,47.72
2022-10-20T15:18:16.414Z,47.52
2022-10-20T15:20:30.308Z,47.67
2022-10-20T15:22:32.063Z,47.42
2022-10-20T15:24:33.698Z,47.32
2022-10-20T15:26:35.313Z,47.62
2022-10-20T15:28:42.945Z,47.68
2022-10-20T15:30:44.897Z,47.50
2022-10-20T15:32:48.163Z,47.77
2022-10-20T15:34:49.756Z,47.78
2022-10-20T15:36:51.627Z,47.85
2022-10-20T15:39:00.200Z,47.32
2022-10-20T15:43:26.612Z,47.55
2022-10-20T15:45:34.201Z,47.85
2022-10-20T15:47:35.966Z,47.84
2022-10-20T15:49:37.479Z,48.18
2022-10-20T15:51:42.854Z,48.18
2022-10-20T15:53:46.939Z,48.18
2022-10-20T15:55:48.626Z,48.17
2022-10-20T15:57:51.993Z,48.32
2022-10-20T15:59:53.503Z,48.17
2022-10-20T16:01:55.200Z,48.22
2022-10-20T16:03:57.053Z,48.25
2022-10-20T16:05:58.619Z,48.30
2022-10-20T16:08:00.298Z,48.41
2022-10-20T16:10:02.109Z,48.19
2022-10-20T16:12:03.970Z,48.32
2022-10-20T16:14:06.150Z,48.76
2022-10-20T16:16:11.807Z,48.40
2022-10-20T16:18:13.451Z,48.76
2022-10-20T16:20:15.282Z,48.69
2022-10-20T16:22:16.857Z,48.70
2022-10-20T16:24:22.531Z,48.51
2022-10-20T16:26:26.991Z,48.67
2022-10-20T16:28:31.080Z,48.56
2022-10-20T16:30:33.359Z,48.64
2022-10-20T16:32:38.037Z,49.11
2022-10-20T16:34:41.538Z,48.67
2022-10-20T16:36:46.212Z,48.80
2022-10-20T16:38:47.873Z,48.95
2022-10-20T16:41:07.288Z,48.92
2022-10-20T16:43:12.064Z,49.17
2022-10-20T16:45:13.904Z,49.23
2022-10-20T16:47:15.634Z,49.11
2022-10-20T16:49:17.210Z,49.18
2022-10-20T16:51:26.289Z,49.47
2022-10-20T16:53:30.890Z,49.49
2022-10-20T16:55:32.489Z,49.35
2022-10-20T16:57:40.519Z,49.25
2022-10-20T16:59:43.214Z,49.52
2022-10-20T17:01:45.031Z,49.39
2022-10-20T17:03:49.328Z,49.84
2022-10-20T17:05:56.166Z,49.47
2022-10-20T17:07:58.553Z,49.83
2022-10-20T17:10:00.120Z,49.63
2022-10-20T17:12:01.815Z,50.03
2022-10-20T17:14:03.494Z,49.65
2022-10-20T17:16:07.778Z,50.15
2022-10-20T17:18:09.463Z,50.12
2022-10-20T17:20:11.238Z,49.96
2022-10-20T17:22:13.142Z,50.39
2022-10-20T17:24:14.888Z,49.99
2022-10-20T17:26:22.689Z,50.19
2022-10-20T17:28:24.454Z,50.40
2022-10-20T17:30:26.083Z,50.13
2022-10-20T17:32:28.042Z,50.67
2022-10-20T17:34:29.791Z,50.52
2022-10-20T17:36:32.594Z,50.53
2022-10-20T17:38:35.503Z,50.50
2022-10-20T17:40:38.037Z,50.27
2022-10-20T17:42:39.979Z,50.37
2022-10-20T17:44:41.695Z,50.55
2022-10-20T17:46:43.468Z,50.77
2022-10-20T17:48:46.107Z,50.60
2022-10-20T17:50:47.707Z,50.76
2022-10-20T17:52:49.299Z,50.91
2022-10-20T17:54:50.858Z,50.73
2022-10-20T17:56:52.646Z,50.85
2022-10-20T17:58:56.355Z,50.93
2022-10-20T18:01:23.433Z,50.88
2022-10-20T18:03:25.321Z,51.29
2022-10-20T18:05:27.035Z,51.13
2022-10-20T18:07:28.691Z,51.31
2022-10-20T18:09:30.194Z,51.17
2022-10-20T18:11:33.436Z,51.17
2022-10-20T18:13:35.092Z,51.27
2022-10-20T18:15:41.657Z,51.32
2022-10-20T18:17:43.217Z,51.21
2022-10-20T18:19:44.813Z,51.36
2022-10-20T18:21:47.275Z,51.38
2022-10-20T18:23:48.800Z,51.35
2022-10-20T18:25:50.265Z,51.69
2022-10-20T18:27:52.660Z,51.94
2022-10-20T18:29:54.421Z,51.84
2022-10-20T18:31:56.059Z,51.92
2022-10-20T18:34:04.298Z,52.16
2022-10-20T18:36:10.441Z,52.63
2022-10-20T18:38:14.919Z,52.61
2022-10-20T18:40:16.505Z,52.75
2022-10-20T18:42:18.352Z,53.08
2022-10-20T18:44:20.255Z,52.89
2022-10-20T18:46:24.960Z,52.81
2022-10-20T18:48:27.095Z,53.15
2022-10-20T18:50:28.606Z,53.36
2022-10-20T18:52:30.626Z,53.33
2022-10-20T18:54:32.229Z,53.15
2022-10-20T18:56:35.286Z,53.23
2022-10-20T18:58:41.505Z,53.19
2022-10-20T19:00:43.264Z,53.40
2022-10-20T19:02:49.520Z,53.39
2022-10-20T19:04:51.042Z,53.47
2022-10-20T19:06:53.261Z,53.54
2022-10-20T19:09:03.661Z,53.43
2022-10-20T19:11:08.098Z,53.47
2022-10-20T19:13:09.998Z,53.59
2022-10-20T19:15:11.707Z,53.40
2022-10-20T19:17:13.567Z,53.50
2022-10-20T19:19:16.161Z,53.42
2022-10-20T19:23:25.924Z,53.33
2022-10-20T19:25:27.678Z,53.55
2022-10-20T19:27:29.547Z,53.31
2022-10-20T19:29:31.474Z,53.22
2022-10-20T19:31:42.564Z,53.24
2022-10-20T19:33:45.007Z,53.15
2022-10-20T19:35:49.468Z,53.20
2022-10-20T19:37:51.022Z,53.25
2022-10-20T19:39:52.703Z,53.10
2022-10-20T19:41:56.694Z,53.43
2022-10-20T19:44:00.690Z,52.84
2022-10-20T19:46:03.435Z,52.97
2022-10-20T19:48:07.561Z,52.97
2022-10-20T19:50:09.254Z,53.23
2022-10-20T19:52:11.471Z,53.28
2022-10-20T19:54:13.382Z,53.22
2022-10-20T19:56:15.843Z,52.99
2022-10-20T19:58:19.491Z,52.85
2022-10-20T20:00:21.147Z,53.03
2022-10-20T20:02:22.702Z,52.92
2022-10-20T20:04:24.730Z,52.88
2022-10-20T20:06:28.461Z,52.87
2022-10-20T20:08:30.905Z,53.01
2022-10-20T20:10:33.287Z,52.78
2022-10-20T20:12:34.942Z,52.76
2022-10-20T20:14:36.474Z,53.00
2022-10-20T20:16:38.644Z,52.89
2022-10-20T20:18:40.218Z,52.77
2022-10-20T20:20:44.108Z,53.03
2022-10-20T20:22:45.854Z,53.10
2022-10-20T20:24:47.389Z,52.90
2022-10-20T20:26:50.245Z,52.86
2022-10-20T20:28:56.128Z,52.87
2022-10-20T20:31:02.486Z,53.01
2022-10-20T20:33:04.898Z,52.94
2022-10-20T20:35:07.227Z,53.01
2022-10-20T20:37:08.802Z,52.92
2022-10-20T20:39:10.626Z,52.96
2022-10-20T20:41:17.683Z,52.63
2022-10-20T20:43:20.032Z,52.73
2022-10-20T20:45:21.705Z,52.59
2022-10-20T20:47:25.434Z,52.58
2022-10-20T20:49:27.058Z,52.56
2022-10-20T20:51:33.387Z,52.72
2022-10-20T20:53:36.401Z,52.59
2022-10-20T20:55:37.997Z,52.44
2022-10-20T20:57:39.901Z,52.74
2022-10-20T20:59:41.921Z,52.67
2022-10-20T21:01:45.203Z,52.63
2022-10-20T21:03:47.072Z,52.51
2022-10-20T21:05:48.680Z,52.75
2022-10-20T21:07:50.303Z,52.68
2022-10-20T21:09:51.803Z,52.55
2022-10-20T21:11:55.994Z,52.44
2022-10-20T21:14:00.628Z,52.74
2022-10-20T21:16:20.657Z,52.60
2022-10-20T21:18:22.390Z,52.80
2022-10-20T21:20:24.136Z,52.82
2022-10-20T21:22:25.652Z,52.88
2022-10-20T21:24:27.456Z,52.51
2022-10-20T21:26:30.153Z,52.57
2022-10-20T21:28:32.041Z,52.69
2022-10-20T21:30:34.282Z,52.62
2022-10-20T21:32:36.286Z,52.55
2022-10-20T21:34:37.917Z,52.70
2022-10-20T21:36:40.219Z,52.80
2022-10-20T21:38:43.201Z,52.80
2022-10-20T21:40:45.071Z,52.89
2022-10-20T21:42:46.772Z,52.93
2022-10-20T21:44:50.074Z,52.88
2022-10-20T21:46:52.193Z,53.05
2022-10-20T21:48:57.743Z,53.01
2022-10-20T21:50:59.316Z,53.02
2022-10-20T21:53:01.075Z,53.09
2022-10-20T21:55:02.563Z,53.05
2022-10-20T21:57:04.503Z,52.76
2022-10-20T21:59:08.387Z,53.20
2022-10-20T22:01:14.418Z,53.17
2022-10-20T22:03:15.993Z,53.06
2022-10-20T22:05:17.641Z,53.25
2022-10-20T22:07:19.317Z,53.25
2022-10-20T22:09:21.653Z,53.09
2022-10-20T22:11:32.310Z,53.30
2022-10-20T22:13:34.488Z,53.24
2022-10-20T22:15:39.742Z,53.39
2022-10-20T22:17:41.431Z,53.38
2022-10-20T22:19:43.026Z,53.33
2022-10-20T22:21:46.905Z,53.41
2022-10-20T22:23:51.579Z,53.32
2022-10-20T22:25:53.856Z,53.34
2022-10-20T22:27:55.687Z,53.28
2022-10-20T22:29:57.661Z,53.37
2022-10-20T22:31:59.359Z,53.45
2022-10-20T22:34:00.937Z,53.38
2022-10-20T22:36:03.768Z,53.40
2022-10-20T22:38:05.370Z,53.23
2022-10-20T22:40:07.663Z,53.30
2022-10-20T22:42:12.406Z,53.22
2022-10-20T22:44:14.026Z,53.21
2022-10-20T22:46:16.309Z,53.38
2022-10-20T22:48:18.025Z,53.27
2022-10-20T22:50:20.118Z,53.11
2022-10-20T22:52:21.744Z,53.23
2022-10-20T22:54:23.403Z,53.31
2022-10-20T22:56:25.487Z,53.28
2022-10-20T22:58:27.175Z,53.30
2022-10-20T23:00:28.929Z,53.49
2022-10-20T23:02:30.446Z,53.47
2022-10-20T23:04:32.359Z,53.49
2022-10-20T23:06:34.508Z,53.56
2022-10-20T23:08:44.793Z,53.54
2022-10-20T23:11:02.744Z,53.54
2022-10-20T23:13:04.418Z,53.51
2022-10-20T23:15:06.907Z,53.63
2022-10-20T23:17:08.547Z,53.58
2022-10-20T23:19:10.160Z,53.50
2022-10-20T23:21:13.884Z,53.56
2022-10-20T23:23:15.610Z,53.31
2022-10-20T23:25:17.445Z,53.38
2022-10-20T23:27:22.595Z,53.34
2022-10-20T23:29:24.303Z,53.40
2022-10-20T23:31:25.960Z,53.50
2022-10-20T23:33:27.553Z,53.36
2022-10-20T23:35:29.253Z,53.40
2022-10-20T23:37:30.904Z,53.40
2022-10-20T23:39:32.507Z,53.43
2022-10-20T23:41:34.217Z,53.26
2022-10-20T23:45:42.923Z,53.54
2022-10-20T23:47:44.709Z,53.59
2022-10-20T23:49:46.458Z,53.53
2022-10-20T23:51:48.241Z,53.53
2022-10-20T23:53:50.070Z,53.49
2022-10-20T23:55:51.766Z,53.43
2022-10-20T23:57:53.398Z,53.50
2022-10-20T23:59:55.003Z,53.45
